Hauptseite
METAR-TAF:

METAR-TAF

Flughäfen :

Flugplatz Laupheim

Laupheim, Deutschland

Breite: 48-13N, Länge: 009-55E, Höhe: 538 m

Beobachtung

Neuester Wetterbericht von vor 1 Stunde und 14 Minuten, um 12:20 UTC
Wind 10 kt aus Ost/Nordost
Temperatur 23°C
Luftfeuchtigkeit 53%
Luftdruck 1021 hPa
Sichtweite 10 km oder mehr
Leicht bewölkt in der Höhe von 4100 ft

METAR: ETHL 061220Z 07010KT 9999 FEW041 23/13 Q1021 BLU+BLU+

Zeit: 15:34 (13:34 UTC)

Prognose

Neuester Wetterbericht von vor 3 Stunden und 14 Minuten, um 10:20 UTC
Gültige Prognose vom 06 um 11 UTC bis 06 um 20 UTC
Wind 12 kt aus Ost/Nordost
Sichtweite 10 km oder mehr
Leicht bewölkt in der Höhe von 4000 ft

TAF: ETHL 061020Z 0611/0620 07012KT 9999 NSW FEW040

Wetterbeobachtungen und Prognosen von mehr als 4000 Flughäfen (METAR und TAF Bericht).

Die verfügbaren Stationen werden durch gelbe und rote Markierungen auf der Karte dargestellt.

Führen Sie die Maus auf sie, um den Namen der Station zu sehen.

Darauf klicken, um die Beobachtung von Wetterbeobachtungen und Prognosen zu sehen.

Um die Karte zu ändern : klicken Sie auf den grünen Tasten mit einem schwarzen Kreuz Zum Vergrößern, auf den grünen Button mit einem Gedankenstrich zu verkleinern, oder auf die grünen Pfeile für benachbarte Karten.


METAR-TAF: